createdAt,value
2022-08-09T00:04:03.619Z,1.20
2022-08-09T00:09:14.146Z,1.27
2022-08-09T00:14:27.956Z,1.20
2022-08-09T00:19:39.480Z,1.30
2022-08-09T00:24:42.195Z,1.23
2022-08-09T00:30:16.808Z,1.10
2022-08-09T00:35:06.874Z,1.20
2022-08-09T00:40:17.052Z,1.17
2022-08-09T00:45:20.271Z,1.20
2022-08-09T00:50:23.850Z,1.27
2022-08-09T00:56:04.058Z,1.00
2022-08-09T01:00:50.854Z,1.20
2022-08-09T01:06:18.019Z,1.20
2022-08-09T01:11:41.938Z,1.33
2022-08-09T01:17:22.100Z,1.20
2022-08-09T01:22:33.909Z,1.40
2022-08-09T01:27:38.954Z,1.30
2022-08-09T01:32:46.388Z,1.30
2022-08-09T01:38:10.190Z,1.20
2022-08-09T01:43:17.084Z,1.67
2022-08-09T01:48:24.051Z,1.30
2022-08-09T01:53:41.399Z,1.35
2022-08-09T01:58:49.015Z,1.20
2022-08-09T02:03:53.548Z,0.80
2022-08-09T02:14:07.634Z,0.95
2022-08-09T02:19:11.396Z,1.05
2022-08-09T02:24:26.103Z,1.00
2022-08-09T02:29:33.843Z,1.00
2022-08-09T02:34:41.437Z,1.10
2022-08-09T02:40:01.663Z,1.10
2022-08-09T02:45:09.702Z,1.00
2022-08-09T02:50:24.438Z,1.10
2022-08-09T02:55:46.642Z,0.95
2022-08-09T03:00:58.437Z,1.10
2022-08-09T03:06:02.728Z,1.05
2022-08-09T03:16:19.169Z,1.15
2022-08-09T03:21:25.816Z,1.15
2022-08-09T03:26:32.089Z,1.20
2022-08-09T03:31:42.362Z,1.10
2022-08-09T03:37:02.324Z,1.40
2022-08-09T03:42:20.536Z,1.10
2022-08-09T03:47:30.822Z,1.38
2022-08-09T03:52:43.660Z,1.40
2022-08-09T03:57:57.591Z,1.38
2022-08-09T04:03:09.382Z,1.48
2022-08-09T04:08:28.763Z,1.20
2022-08-09T04:14:36.525Z,1.20
2022-08-09T04:18:53.243Z,1.17
2022-08-09T04:23:57.576Z,1.13
2022-08-09T04:34:11.712Z,1.30
2022-08-09T04:39:20.573Z,1.30
2022-08-09T04:44:22.409Z,1.40
2022-08-09T04:49:40.628Z,1.60
2022-08-09T04:54:51.396Z,1.38
2022-08-09T04:59:55.266Z,1.50
2022-08-09T05:04:57.138Z,1.23
2022-08-09T05:10:01.780Z,1.70
2022-08-09T05:15:11.550Z,1.13
2022-08-09T05:20:29.771Z,1.20
2022-08-09T05:25:32.803Z,1.10
2022-08-09T05:30:34.783Z,1.10
2022-08-09T05:35:46.945Z,1.05
2022-08-09T05:40:52.738Z,1.02
2022-08-09T05:45:57.049Z,1.00
2022-08-09T05:51:29.748Z,1.27
2022-08-09T05:56:21.883Z,1.00
2022-08-09T06:01:33.685Z,0.95
2022-08-09T06:06:49.730Z,1.00
2022-08-09T06:11:57.594Z,1.23
2022-08-09T06:16:59.893Z,1.20
2022-08-09T06:22:15.118Z,1.17
2022-08-09T06:27:17.466Z,0.90
2022-08-09T06:32:59.712Z,1.10
2022-08-09T06:37:53.171Z,0.90
2022-08-09T06:43:03.662Z,1.30
2022-08-09T06:48:09.574Z,1.55
2022-08-09T06:53:18.367Z,0.90
2022-08-09T07:00:52.559Z,1.08
2022-08-09T07:03:52.381Z,0.98
2022-08-09T07:08:56.632Z,0.82
2022-08-09T07:14:05.393Z,0.87
2022-08-09T07:19:07.917Z,0.90
2022-08-09T07:24:09.890Z,0.82
2022-08-09T07:29:14.782Z,0.70
2022-08-09T07:34:19.585Z,0.80
2022-08-09T07:39:40.302Z,0.90
2022-08-09T07:44:52.088Z,0.88
2022-08-09T07:50:07.728Z,0.90
2022-08-09T07:55:11.758Z,0.90
2022-08-09T08:00:20.714Z,1.02
2022-08-09T08:05:54.161Z,1.13
2022-08-09T08:11:15.182Z,0.83
2022-08-09T08:16:29.786Z,0.80
2022-08-09T08:21:33.424Z,0.90
2022-08-09T08:26:55.032Z,1.20
2022-08-09T08:32:04.533Z,0.95
2022-08-09T08:37:07.876Z,0.82
2022-08-09T08:42:17.531Z,1.10
2022-08-09T08:47:27.607Z,1.00
2022-08-09T08:57:57.652Z,0.95
2022-08-09T09:03:11.294Z,1.08
2022-08-09T09:08:30.710Z,1.10
2022-08-09T09:13:47.318Z,1.10
2022-08-09T09:19:15.688Z,0.93
2022-08-09T09:24:26.432Z,1.20
2022-08-09T09:29:57.945Z,1.27
2022-08-09T09:35:10.700Z,1.00
2022-08-09T09:40:15.026Z,0.98
2022-08-09T09:45:26.540Z,0.93
2022-08-09T09:50:51.088Z,1.00
2022-08-09T09:56:05.143Z,0.90
2022-08-09T10:01:36.796Z,1.23
2022-08-09T10:06:46.739Z,1.00
2022-08-09T10:12:11.318Z,0.93
2022-08-09T10:17:39.532Z,1.00
2022-08-09T10:22:43.005Z,1.15
2022-08-09T10:27:57.960Z,1.27
2022-08-09T10:33:00.303Z,1.00
2022-08-09T10:38:02.386Z,1.00
2022-08-09T10:43:08.218Z,1.08
2022-08-09T10:48:30.666Z,1.05
2022-08-09T10:53:39.483Z,1.00
2022-08-09T10:58:49.316Z,1.20
2022-08-09T11:04:27.939Z,1.30
2022-08-09T11:09:37.582Z,1.00
2022-08-09T11:14:56.238Z,1.23
2022-08-09T11:20:19.722Z,1.10
2022-08-09T11:25:45.074Z,1.23
2022-08-09T11:30:49.619Z,1.10
2022-08-09T11:36:01.336Z,1.13
2022-08-09T11:41:38.279Z,1.27
2022-08-09T11:46:52.896Z,1.27
2022-08-09T11:52:56.432Z,0.98
2022-08-09T11:57:48.042Z,1.00
2022-08-09T12:03:31.757Z,0.93
2022-08-09T12:14:07.896Z,1.10
2022-08-09T12:19:05.472Z,1.33
2022-08-09T12:24:10.897Z,1.00
2022-08-09T12:29:43.703Z,1.10
2022-08-09T12:34:46.268Z,0.88
2022-08-09T12:40:09.592Z,1.00
2022-08-09T12:45:32.280Z,1.00
2022-08-09T12:50:37.227Z,1.23
2022-08-09T12:56:12.382Z,1.10
2022-08-09T13:01:04.692Z,1.10
2022-08-09T13:06:16.102Z,1.10
2022-08-09T13:11:28.879Z,1.20
2022-08-09T13:16:40.458Z,1.20
2022-08-09T13:22:36.093Z,1.00
2022-08-09T13:27:31.717Z,1.10
2022-08-09T13:32:49.001Z,1.00
2022-08-09T13:37:52.942Z,1.15
2022-08-09T13:42:55.300Z,1.23
2022-08-09T13:47:59.162Z,1.00
2022-08-09T13:53:01.128Z,1.30
2022-08-09T13:58:03.061Z,1.27
2022-08-09T14:04:02.335Z,1.10
2022-08-09T14:08:32.291Z,1.37
2022-08-09T14:14:22.923Z,1.40
2022-08-09T14:18:58.123Z,1.42
2022-08-09T14:24:01.262Z,1.23
2022-08-09T14:30:04.257Z,1.23
2022-08-09T14:34:36.826Z,1.02
2022-08-09T14:39:46.763Z,1.30
2022-08-09T14:44:59.846Z,1.40
2022-08-09T14:50:03.802Z,1.40
2022-08-09T14:55:06.950Z,1.15
2022-08-09T15:00:10.878Z,1.38
2022-08-09T15:05:12.866Z,1.30
2022-08-09T15:10:17.843Z,1.85
2022-08-09T15:15:20.218Z,1.50
2022-08-09T15:21:54.854Z,1.10
2022-08-09T15:25:46.226Z,1.60
2022-08-09T15:31:01.225Z,1.20
2022-08-09T15:36:09.901Z,1.20
2022-08-09T15:41:11.802Z,1.13
2022-08-09T15:46:32.351Z,1.20
2022-08-09T15:52:02.339Z,1.50
2022-08-09T15:56:58.358Z,1.38
2022-08-09T16:02:00.195Z,1.20
2022-08-09T16:07:02.321Z,1.37
2022-08-09T16:12:04.573Z,1.33
2022-08-09T16:17:06.364Z,1.40
2022-08-09T16:22:15.782Z,1.23
2022-08-09T16:27:18.341Z,1.70
2022-08-09T16:32:34.094Z,1.25
2022-08-09T16:37:56.123Z,1.35
2022-08-09T16:42:59.345Z,1.40
2022-08-09T16:48:38.670Z,1.45
2022-08-09T16:53:33.985Z,1.50
2022-08-09T16:58:37.240Z,1.17
2022-08-09T17:03:41.768Z,1.10
2022-08-09T17:09:04.857Z,1.17
2022-08-09T17:14:06.268Z,1.27
2022-08-09T17:19:10.544Z,1.30
2022-08-09T17:24:20.626Z,1.50
2022-08-09T17:29:31.465Z,1.38
2022-08-09T17:35:04.366Z,1.45
2022-08-09T17:40:01.629Z,1.00
2022-08-09T17:45:06.515Z,1.33
2022-08-09T17:50:36.204Z,1.27
2022-08-09T17:55:49.429Z,1.40
2022-08-09T18:00:52.298Z,1.30
2022-08-09T18:05:58.085Z,1.15
2022-08-09T18:11:02.948Z,1.48
2022-08-09T18:16:09.011Z,1.25
2022-08-09T18:21:21.521Z,1.10
2022-08-09T18:26:26.001Z,1.27
2022-08-09T18:31:51.193Z,1.25
2022-08-09T18:36:50.447Z,1.20
2022-08-09T18:41:55.715Z,1.20
2022-08-09T18:47:08.449Z,1.15
2022-08-09T18:52:13.317Z,1.30
2022-08-09T19:02:18.147Z,1.20
2022-08-09T19:07:20.207Z,1.20
2022-08-09T19:12:23.359Z,1.30
2022-08-09T19:17:31.307Z,1.40
2022-08-09T19:22:54.275Z,1.35
2022-08-09T19:27:57.085Z,1.38
2022-08-09T19:32:59.732Z,1.20
2022-08-09T19:38:02.489Z,1.30
2022-08-09T19:43:05.418Z,1.23
2022-08-09T19:48:12.241Z,1.20
2022-08-09T19:53:14.129Z,1.30
2022-08-09T19:58:17.085Z,1.40
2022-08-09T20:04:24.113Z,1.38
2022-08-09T20:08:56.593Z,1.00
2022-08-09T20:13:58.916Z,1.30
2022-08-09T20:19:43.047Z,1.30
2022-08-09T20:24:31.953Z,1.30
2022-08-09T20:29:38.762Z,1.50
2022-08-09T20:34:40.924Z,1.40
2022-08-09T20:40:16.273Z,1.33
2022-08-09T20:45:57.346Z,1.30
2022-08-09T20:50:47.950Z,1.33
2022-08-09T20:56:00.946Z,1.67
2022-08-09T21:01:33.674Z,1.50
2022-08-09T21:06:29.375Z,1.50
2022-08-09T21:16:55.669Z,1.35
2022-08-09T21:21:58.094Z,1.40
2022-08-09T21:27:01.055Z,1.38
2022-08-09T21:32:33.445Z,1.40
2022-08-09T21:37:40.587Z,1.42
2022-08-09T21:43:04.347Z,1.40
2022-08-09T21:48:08.497Z,1.40
2022-08-09T21:53:19.970Z,1.52
2022-08-09T21:58:32.157Z,1.60
2022-08-09T22:03:33.997Z,1.60
2022-08-09T22:08:50.078Z,1.40
2022-08-09T22:13:51.921Z,1.73
2022-08-09T22:18:55.289Z,1.40
2022-08-09T22:23:59.064Z,1.42
2022-08-09T22:29:09.117Z,1.60
2022-08-09T22:34:15.045Z,1.70
2022-08-09T22:39:47.298Z,1.52
2022-08-09T22:44:38.972Z,1.63
2022-08-09T22:49:48.111Z,1.77
2022-08-09T22:54:54.021Z,1.70
2022-08-09T22:59:59.269Z,1.58
2022-08-09T23:10:08.064Z,1.75
2022-08-09T23:15:10.424Z,1.35
2022-08-09T23:20:12.243Z,1.42
2022-08-09T23:25:14.121Z,1.40
2022-08-09T23:30:16.712Z,1.80
2022-08-09T23:35:18.571Z,1.52
2022-08-09T23:40:20.460Z,1.50
2022-08-09T23:45:36.892Z,1.33
2022-08-09T23:50:40.772Z,1.40
2022-08-09T23:55:49.200Z,1.40
